Time;durP1;ratioP1;P1;durP2;ratioP2;P2;SDS_P1;SDS_P2;PMS_P1;PMS_P2;Temp;Humidity;BMP_temperature;BMP_pressure;BME280_temperature;BME280_humidity;BME280_pressure;Samples;Min_cycle;Max_cycle;Signal;HPM_P1;HPM_P2
2021/05/31 00:00:51;;;;;;;3.45;1.98;;;;;;;12.75;48.99;102455.25;6213244;28;20198;-72
2021/05/31 00:03:56;;;;;;;1.92;1.60;;;;;;;12.78;48.96;102453.00;6212747;28;20505;-72
2021/05/31 00:07:04;;;;;;;1.88;1.75;;;;;;;12.76;49.22;102446.00;6213116;28;20342;-72
2021/05/31 00:10:11;;;;;;;5.85;2.35;;;;;;;12.57;49.54;102437.38;6213520;28;20290;-72
2021/05/31 00:13:17;;;;;;;2.92;1.73;;;;;;;12.64;48.84;102447.53;6212758;28;20507;-72
2021/05/31 00:16:20;;;;;;;4.53;1.70;;;;;;;12.61;48.64;102439.72;6213518;28;20193;-71
2021/05/31 00:19:25;;;;;;;2.67;1.90;;;;;;;12.53;48.62;102411.38;6212462;28;20360;-72
2021/05/31 00:22:29;;;;;;;2.08;1.98;;;;;;;12.71;48.54;102434.78;6212567;28;20525;-71
2021/05/31 00:25:33;;;;;;;3.15;1.85;;;;;;;12.66;49.27;102437.25;6213750;28;20186;-71
2021/05/31 00:28:36;;;;;;;4.00;1.88;;;;;;;12.66;49.13;102442.72;6213485;28;20209;-72
2021/05/31 00:31:40;;;;;;;2.13;2.00;;;;;;;12.75;49.08;102430.59;6212329;28;20532;-72
2021/05/31 00:34:45;;;;;;;5.63;1.95;;;;;;;12.69;49.30;102425.88;6213368;28;20294;-72
2021/05/31 00:37:49;;;;;;;6.70;2.10;;;;;;;12.50;49.95;102433.69;6213774;28;20233;-72
2021/05/31 00:40:52;;;;;;;2.97;1.80;;;;;;;12.64;49.29;102428.34;6212690;28;20190;-72
2021/05/31 00:43:56;;;;;;;1.88;1.77;;;;;;;12.51;49.17;102408.00;6214920;28;20186;-72
2021/05/31 00:47:00;;;;;;;1.67;1.58;;;;;;;12.65;49.43;102422.72;6200254;28;20208;-71
2021/05/31 00:50:07;;;;;;;2.05;1.90;;;;;;;12.68;49.15;102418.72;6218323;28;20193;-71
2021/05/31 00:53:11;;;;;;;1.92;1.80;;;;;;;12.52;49.37;102420.66;6216969;28;20218;-71
2021/05/31 00:56:16;;;;;;;1.95;1.70;;;;;;;12.52;49.83;102425.28;6218329;28;20193;-72
2021/05/31 00:59:19;;;;;;;2.30;1.73;;;;;;;12.65;49.76;102435.53;6218208;28;20190;-72
2021/05/31 01:02:24;;;;;;;2.35;1.90;;;;;;;12.51;50.13;102421.69;6218108;28;20293;-72
2021/05/31 01:05:29;;;;;;;3.03;2.10;;;;;;;12.57;51.66;102429.16;6217360;28;20229;-72
2021/05/31 01:08:40;;;;;;;1.90;1.80;;;;;;;12.47;51.12;102417.66;6217021;28;20228;-72
2021/05/31 01:11:53;;;;;;;2.00;1.90;;;;;;;12.45;50.63;102419.69;6216599;28;20277;-72
2021/05/31 01:15:04;;;;;;;2.20;2.00;;;;;;;12.48;50.57;102419.31;6217452;28;20187;-72
2021/05/31 01:18:19;;;;;;;3.75;1.80;;;;;;;12.37;51.30;102428.06;6216535;28;20374;-71
2021/05/31 01:21:37;;;;;;;2.17;2.08;;;;;;;12.28;51.50;102412.75;6216167;28;20253;-71
2021/05/31 01:25:02;;;;;;;2.10;2.00;;;;;;;12.19;51.92;102416.63;6217534;28;20186;-73
2021/05/31 01:28:46;;;;;;;1.95;1.77;;;;;;;12.29;51.64;102409.00;6217278;28;20233;-72
2021/05/31 01:31:55;;;;;;;5.13;2.10;;;;;;;12.30;51.78;102416.13;6207177;28;20225;-71
2021/05/31 01:35:02;;;;;;;3.28;1.95;;;;;;;12.34;51.98;102412.00;6215898;28;20209;-71
2021/05/31 01:38:06;;;;;;;2.63;2.08;;;;;;;12.37;52.32;102411.63;6216009;28;20361;-71
2021/05/31 01:41:12;;;;;;;1.77;1.73;;;;;;;12.29;52.67;102414.47;6216931;28;20196;-71
2021/05/31 01:44:18;;;;;;;5.47;2.05;;;;;;;12.25;52.92;102413.13;6217286;28;20225;-72
2021/05/31 01:47:24;;;;;;;1.98;1.98;;;;;;;12.25;54.40;102402.19;6217091;28;20186;-72
2021/05/31 01:50:31;;;;;;;1.70;1.70;;;;;;;12.09;53.73;102402.41;6215602;28;20186;-71
2021/05/31 01:53:35;;;;;;;1.80;1.70;;;;;;;12.05;54.44;102390.13;6215740;28;20469;-71
2021/05/31 01:56:41;;;;;;;4.07;2.00;;;;;;;12.33;53.86;102393.88;6215565;28;20186;-72
2021/05/31 01:59:45;;;;;;;2.70;2.10;;;;;;;12.23;54.44;102393.31;6215486;28;20187;-72
2021/05/31 02:02:50;;;;;;;5.22;2.33;;;;;;;12.27;54.27;102386.44;6215765;28;20385;-72
2021/05/31 02:05:54;;;;;;;2.60;1.90;;;;;;;12.25;54.01;102385.75;6216514;28;20230;-72
2021/05/31 02:09:02;;;;;;;2.72;2.00;;;;;;;12.19;54.41;102370.13;6216626;28;20193;-72
2021/05/31 02:12:09;;;;;;;15.15;2.30;;;;;;;12.19;54.37;102375.59;6215546;28;20221;-71
2021/05/31 02:15:15;;;;;;;3.85;2.60;;;;;;;12.15;54.48;102368.78;6215072;28;20500;-71
2021/05/31 02:18:25;;;;;;;3.65;2.40;;;;;;;12.18;54.77;102371.16;6216381;28;20194;-71
2021/05/31 02:21:33;;;;;;;2.63;2.13;;;;;;;12.17;54.93;102366.69;6216138;28;20269;-71
2021/05/31 02:24:38;;;;;;;4.07;2.20;;;;;;;12.24;54.70;102367.66;6214777;28;20477;-71
2021/05/31 02:27:43;;;;;;;2.95;2.20;;;;;;;12.17;55.72;102366.69;6214874;28;20186;-72
2021/05/31 02:30:48;;;;;;;2.55;2.30;;;;;;;12.22;55.98;102353.28;6214701;28;20531;-72
2021/05/31 02:33:53;;;;;;;3.55;2.05;;;;;;;12.26;56.23;102349.16;6216129;28;20190;-73
2021/05/31 02:36:57;;;;;;;3.95;2.30;;;;;;;12.17;56.51;102350.28;6216063;28;20233;-71
2021/05/31 02:40:00;;;;;;;7.50;2.42;;;;;;;12.14;56.82;102344.38;6215822;28;20256;-71
2021/05/31 02:43:09;;;;;;;3.65;2.42;;;;;;;12.13;57.27;102343.50;6214489;28;20221;-71
2021/05/31 02:46:12;;;;;;;8.57;2.55;;;;;;;12.17;56.72;102339.34;6215564;28;20220;-72
2021/05/31 02:49:18;;;;;;;2.30;2.20;;;;;;;12.11;57.21;102323.72;6215630;28;20269;-71
2021/05/31 02:52:22;;;;;;;3.13;2.30;;;;;;;12.21;57.56;102323.41;6215390;28;20242;-72
2021/05/31 02:55:26;;;;;;;2.63;2.13;;;;;;;12.22;57.07;102331.41;6215521;28;20257;-72
2021/05/31 02:58:30;;;;;;;3.13;2.17;;;;;;;12.24;57.55;102323.03;6215105;28;20187;-72
2021/05/31 03:01:34;;;;;;;2.33;2.08;;;;;;;12.14;57.03;102312.38;6215218;28;20194;-72
2021/05/31 03:04:39;;;;;;;4.40;2.50;;;;;;;12.28;57.68;102313.38;6213516;28;20250;-72
2021/05/31 03:07:44;;;;;;;4.45;2.28;;;;;;;12.26;57.75;102316.31;6214637;28;20213;-72
2021/05/31 03:10:48;;;;;;;5.35;2.15;;;;;;;12.24;58.75;102312.06;6196907;28;20202;-72
2021/05/31 03:13:52;;;;;;;5.43;2.53;;;;;;;12.31;58.24;102308.38;6214165;28;20236;-72
2021/05/31 03:16:56;;;;;;;2.58;2.30;;;;;;;12.41;57.83;102291.63;6213685;28;20524;-72
2021/05/31 03:20:01;;;;;;;4.00;2.30;;;;;;;12.37;57.60;102288.44;6213613;28;20383;-72
2021/05/31 03:23:05;;;;;;;2.75;2.33;;;;;;;12.40;57.06;102296.25;6213804;28;20190;-72
2021/05/31 03:26:09;;;;;;;3.50;2.55;;;;;;;12.43;57.36;102295.00;6213077;28;20186;-72
2021/05/31 03:29:13;;;;;;;3.45;2.67;;;;;;;12.36;57.02;102270.31;6213494;28;20222;-72
2021/05/31 03:32:17;;;;;;;2.75;2.55;;;;;;;12.28;57.20;102256.75;6214224;28;20210;-72
2021/05/31 03:35:22;;;;;;;3.42;2.40;;;;;;;12.48;57.52;102287.91;6214342;28;20186;-72
2021/05/31 03:38:26;;;;;;;2.90;2.47;;;;;;;12.58;57.94;102277.50;6214103;28;20186;-72
2021/05/31 03:41:29;;;;;;;5.50;2.70;;;;;;;12.64;57.06;102280.50;6213558;28;20194;-72
2021/05/31 03:44:33;;;;;;;2.40;2.20;;;;;;;12.63;56.97;102274.19;6213006;28;20241;-72
2021/05/31 03:47:37;;;;;;;1.90;1.83;;;;;;;12.64;56.76;102280.50;6214371;28;20186;-72
2021/05/31 03:50:42;;;;;;;5.30;2.65;;;;;;;12.74;57.83;102270.91;6214025;28;20314;-72
2021/05/31 03:53:46;;;;;;;3.92;2.30;;;;;;;12.87;56.13;102270.16;6212814;28;20240;-71
2021/05/31 03:56:50;;;;;;;5.65;2.88;;;;;;;12.95;57.41;102261.81;6213220;28;20190;-71
2021/05/31 03:59:53;;;;;;;10.10;2.67;;;;;;;12.97;55.47;102259.72;6213723;28;20225;-71
2021/05/31 04:02:58;;;;;;;2.78;2.55;;;;;;;13.09;55.60;102250.81;6195862;28;20380;-71
2021/05/31 04:06:13;;;;;;;2.20;2.10;;;;;;;13.18;55.14;102243.28;6212385;28;20428;-72
2021/05/31 04:12:53;;;;;;;2.42;2.22;;;;;;;13.46;55.68;102233.13;6138433;29;20311;-72
2021/05/31 04:15:57;;;;;;;3.08;2.72;;;;;;;13.57;56.17;102240.78;6139056;29;20188;-71
2021/05/31 04:19:01;;;;;;;4.65;2.40;;;;;;;13.68;56.57;102236.63;6209648;28;20202;-72
2021/05/31 04:22:06;;;;;;;5.43;3.55;;;;;;;13.74;55.61;102231.16;6213348;28;20222;-71
2021/05/31 04:25:13;;;;;;;2.63;2.42;;;;;;;13.77;56.22;102219.78;6212414;28;20499;-71
2021/05/31 04:28:32;;;;;;;2.15;2.03;;;;;;;13.82;56.56;102206.28;6212272;28;20194;-72
2021/05/31 04:31:36;;;;;;;7.13;2.65;;;;;;;13.67;57.25;102161.72;6213516;28;20190;-71
2021/05/31 04:34:40;;;;;;;6.05;2.90;;;;;;;13.87;57.43;102205.66;6212189;28;20561;-72
2021/05/31 04:37:45;;;;;;;3.13;2.22;;;;;;;13.92;56.60;102210.56;6212236;28;20253;-71
2021/05/31 04:40:52;;;;;;;3.55;2.67;;;;;;;14.13;56.41;102200.25;6213446;28;20253;-72
2021/05/31 04:43:55;;;;;;;2.75;2.55;;;;;;;14.24;55.54;102198.81;6213374;28;20190;-72
2021/05/31 04:46:59;;;;;;;4.80;2.40;;;;;;;14.14;56.29;102165.44;6212037;28;20415;-72
2021/05/31 04:50:04;;;;;;;6.80;2.88;;;;;;;14.32;55.53;102184.91;6211990;28;20374;-72
2021/05/31 04:53:12;;;;;;;3.53;2.75;;;;;;;14.48;55.40;102184.53;6213119;28;20218;-71
2021/05/31 04:56:16;;;;;;;3.33;2.83;;;;;;;14.62;55.28;102180.72;6211876;28;20451;-71
2021/05/31 04:59:20;;;;;;;5.95;2.80;;;;;;;14.74;53.25;102184.50;6212320;28;20187;-72
2021/05/31 05:02:23;;;;;;;4.28;3.03;;;;;;;14.83;53.30;102161.25;6212827;28;20273;-72
2021/05/31 05:05:27;;;;;;;4.75;2.80;;;;;;;15.01;53.80;102169.69;6212660;28;20297;-72
2021/05/31 05:08:32;;;;;;;4.90;2.88;;;;;;;15.12;53.16;102176.44;6211765;28;20383;-73
2021/05/31 05:11:36;;;;;;;6.38;2.80;;;;;;;15.21;54.15;102163.28;6212131;28;20192;-72
2021/05/31 05:14:40;;;;;;;4.55;2.85;;;;;;;15.30;54.42;102164.78;6212806;28;20210;-72
2021/05/31 05:17:45;;;;;;;3.72;2.95;;;;;;;15.43;54.33;102161.97;6212783;28;20282;-72
2021/05/31 05:20:49;;;;;;;7.90;3.35;;;;;;;15.58;54.18;102165.34;6211380;28;20187;-72
2021/05/31 05:23:54;;;;;;;4.00;2.80;;;;;;;15.65;53.69;102166.13;6212363;28;20201;-71
2021/05/31 05:26:57;;;;;;;6.18;2.83;;;;;;;15.76;53.96;102173.72;6212533;28;20187;-72
2021/05/31 05:30:01;;;;;;;4.15;2.90;;;;;;;15.95;53.65;102194.78;6214698;28;20218;-72
2021/05/31 05:33:06;;;;;;;4.35;2.65;;;;;;;15.93;51.94;102199.66;6216787;28;20225;-72
2021/05/31 05:36:19;;;;;;;4.10;2.45;;;;;;;16.00;52.83;102183.94;6217272;28;20249;-73
2021/05/31 05:39:44;;;;;;;5.72;3.20;;;;;;;16.22;51.43;102174.31;6217003;28;20276;-71
2021/05/31 05:43:04;;;;;;;17.08;3.05;;;;;;;16.42;51.47;102167.78;6215903;28;20206;-72
2021/05/31 05:46:25;;;;;;;3.97;3.42;;;;;;;16.55;54.16;102184.25;6216975;28;20187;-71
2021/05/31 05:49:33;;;;;;;10.25;2.83;;;;;;;16.75;51.51;102165.63;6215679;28;20187;-71
2021/05/31 05:52:37;;;;;;;5.72;2.70;;;;;;;16.64;49.68;102141.59;6215385;28;20517;-72
2021/05/31 05:55:42;;;;;;;12.48;2.80;;;;;;;16.88;50.31;102173.78;6215495;28;20435;-71
2021/05/31 05:58:47;;;;;;;5.70;2.97;;;;;;;17.00;49.83;102163.69;6198679;28;20539;-72
2021/05/31 06:01:51;;;;;;;4.40;3.25;;;;;;;17.16;49.51;102171.38;6216807;28;20194;-72
2021/05/31 06:04:54;;;;;;;5.03;2.95;;;;;;;17.27;51.51;102167.88;6216343;28;20237;-72
2021/05/31 06:07:58;;;;;;;11.13;3.00;;;;;;;17.20;50.14;102169.03;6216289;28;20187;-72
2021/05/31 06:11:04;;;;;;;3.08;2.83;;;;;;;17.33;51.37;102161.41;6215835;28;20218;-72
2021/05/31 06:14:10;;;;;;;9.30;3.05;;;;;;;17.39;49.70;102157.75;6215670;28;20324;-72
2021/05/31 06:17:15;;;;;;;7.70;2.95;;;;;;;17.41;49.74;102147.31;6215702;28;20222;-72
2021/05/31 06:20:20;;;;;;;3.08;2.88;;;;;;;17.62;49.63;102147.94;6215737;28;20225;-72
2021/05/31 06:23:24;;;;;;;6.80;2.97;;;;;;;17.66;48.95;102116.91;6215882;28;20190;-72
2021/05/31 06:26:29;;;;;;;;;;;;;;;17.89;49.28;102143.78;6215890;28;20186;-73
2021/05/31 06:29:32;;;;;;;;;;;;;;;17.96;49.37;102133.47;6215732;28;19977;-72
2021/05/31 06:32:36;;;;;;;;;;;;;;;18.08;48.73;102126.91;6216592;28;19996;-72
2021/05/31 06:35:40;;;;;;;;;;;;;;;18.27;48.64;102124.91;6216316;28;19924;-72
2021/05/31 06:38:43;;;;;;;;;;;;;;;18.23;48.54;102134.78;6215776;28;20016;-72
2021/05/31 06:42:06;;;;;;;;;;;;;;;18.25;47.95;102121.56;6214490;28;20108;-73
2021/05/31 06:45:11;;;;;;;;;;;;;;;18.27;47.35;102116.63;6216132;28;19918;-73
2021/05/31 06:48:14;;;;;;;;;;;;;;;18.33;47.39;102112.94;6215835;28;19921;-72
2021/05/31 06:51:18;;;;;;;;;;;;;;;18.29;48.56;102106.19;6215689;28;19989;-72
2021/05/31 06:54:23;;;;;;;;;;;;;;;18.32;47.99;102113.16;6215055;28;19918;-72
2021/05/31 06:57:27;;;;;;;;;;;;;;;18.34;48.13;102113.75;6215475;28;19921;-72
2021/05/31 07:00:31;;;;;;;;;;;;;;;18.39;48.66;102103.66;6215542;28;19957;-72
2021/05/31 07:03:36;;;;;;;;;;;;;;;18.46;48.29;102101.63;6215071;28;19943;-72
2021/05/31 07:06:39;;;;;;;;;;;;;;;18.50;47.98;102097.34;6214366;28;20251;-72
2021/05/31 07:09:46;;;;;;;;;;;;;;;18.61;48.57;102090.16;6215558;28;19918;-72
2021/05/31 07:12:51;;;;;;;;;;;;;;;18.63;48.17;102091.59;6214149;28;20220;-72
2021/05/31 07:15:54;;;;;;;;;;;;;;;18.63;47.92;102085.22;6215570;28;19918;-72
2021/05/31 07:18:58;;;;;;;;;;;;;;;18.77;47.75;102086.69;6215107;28;19960;-73
2021/05/31 07:22:01;;;;;;;;;;;;;;;18.72;48.52;102079.09;6215211;28;19925;-72
2021/05/31 07:25:05;;;;;;;;;;;;;;;18.79;48.38;102078.97;6214139;28;20160;-73
2021/05/31 07:28:11;;;;;;;;;;;;;;;18.86;47.24;102079.69;6215348;28;19918;-72
2021/05/31 07:31:15;;;;;;;;;;;;;;;19.03;48.06;102069.53;6213958;28;20220;-72
2021/05/31 07:34:18;;;;;;;;;;;;;;;19.05;47.37;102055.50;6213474;28;20238;-72
2021/05/31 07:37:21;;;;;;;;;;;;;;;18.99;48.10;102056.47;6214574;28;19918;-72
2021/05/31 07:40:25;;;;;;;;;;;;;;;18.70;47.84;102052.75;6214579;28;19917;-73
2021/05/31 07:43:30;;;;;;;;;;;;;;;18.55;48.65;102064.31;6213676;28;20179;-72
2021/05/31 07:46:33;;;;;;;;;;;;;;;18.39;48.71;102066.91;6214628;28;19917;-72
2021/05/31 07:49:36;;;;;;;;;;;;;;;18.45;49.65;102055.75;6214978;28;19924;-72
2021/05/31 07:52:40;;;;;;;;;;;;;;;18.66;49.06;102057.94;6214743;28;19970;-72
2021/05/31 07:55:43;;;;;;;;;;;;;;;18.91;48.88;102065.13;6213608;28;20255;-72
2021/05/31 07:58:48;;;;;;;;;;;;;;;19.04;48.68;102070.41;6213657;28;20192;-73
2021/05/31 08:01:52;;;;;;;;;;;;;;;19.16;49.05;102073.97;6214468;28;19930;-71
2021/05/31 08:04:56;;;;;;;;;;;;;;;19.18;46.72;102069.06;6213894;28;20000;-72
2021/05/31 08:07:59;;;;;;;;;;;;;;;19.05;47.01;102078.47;6214560;28;19925;-73
2021/05/31 08:11:03;;;;;;;;;;;;;;;18.97;47.28;102075.22;6214338;28;19917;-73
2021/05/31 08:14:08;;;;;;;;;;;;;;;18.99;48.20;102073.06;6214182;28;19972;-72
2021/05/31 08:17:11;;;;;;;;;;;;;;;19.20;47.10;102075.19;6214005;28;19960;-73
2021/05/31 08:20:15;;;;;;;;;;;;;;;19.40;47.72;102081.16;6214198;28;19941;-72
2021/05/31 08:23:19;;;;;;;4.22;4.03;;;;;;;19.27;46.71;102084.19;6213456;28;20559;-73
2021/05/31 08:26:23;;;;;;;4.07;3.97;;;;;;;19.24;46.75;102087.44;6212153;28;20216;-73
2021/05/31 08:29:28;;;;;;;5.53;4.10;;;;;;;19.03;46.98;102093.63;6212295;28;20414;-72
2021/05/31 08:32:31;;;;;;;5.95;4.25;;;;;;;18.96;47.52;102096.50;6213397;28;20186;-71
2021/05/31 08:35:37;;;;;;;4.55;4.10;;;;;;;19.03;47.22;102090.88;6212232;28;20360;-73
2021/05/31 08:38:41;;;;;;;4.88;4.22;;;;;;;19.05;47.69;102094.22;6212119;28;20222;-72
2021/05/31 08:41:45;;;;;;;3.92;3.72;;;;;;;19.07;47.81;102103.09;6213321;28;20186;-72
2021/05/31 08:44:50;;;;;;;10.80;3.92;;;;;;;19.12;48.21;102072.78;6212944;28;20257;-72
2021/05/31 08:47:55;;;;;;;4.63;4.22;;;;;;;19.27;48.35;102086.94;6212113;28;20406;-72
2021/05/31 08:50:59;;;;;;;3.97;3.85;;;;;;;19.16;47.18;102090.56;6212008;28;20496;-72
2021/05/31 08:54:04;;;;;;;4.07;3.67;;;;;;;19.01;47.45;102087.47;6213237;28;20216;-72
2021/05/31 08:57:08;;;;;;;4.35;4.10;;;;;;;19.27;47.85;102086.94;6212897;28;20231;-73
2021/05/31 09:00:17;;;;;;;4.60;4.25;;;;;;;19.24;47.79;102076.34;6213263;28;20237;-72
2021/05/31 09:03:20;;;;;;;6.15;3.90;;;;;;;19.19;47.31;102067.97;6213419;28;20237;-72
2021/05/31 09:06:26;;;;;;;4.55;3.97;;;;;;;19.43;47.87;102080.69;6232408;28;20234;-73
2021/05/31 09:09:39;;;;;;;5.38;3.80;;;;;;;19.55;46.73;102078.69;6216932;28;20218;-72
2021/05/31 09:12:43;;;;;;;4.15;3.92;;;;;;;19.65;47.38;102070.59;6216794;28;20187;-73
2021/05/31 09:16:03;;;;;;;4.40;4.00;;;;;;;19.58;47.05;102075.44;6216516;28;20399;-72
2021/05/31 09:19:06;;;;;;;;;;;;;;;19.64;47.14;102081.94;6217770;28;20197;-72
2021/05/31 09:22:10;;;;;;;;;;;;;;;19.81;46.95;102083.66;6217796;28;19919;-72
2021/05/31 09:25:24;;;;;;;8.13;4.70;;;;;;;19.83;46.68;102075.94;6217005;28;20556;-72
2021/05/31 09:28:28;;;;;;;5.47;3.75;;;;;;;19.92;47.45;102060.59;6217937;28;20253;-73
2021/05/31 09:31:33;;;;;;;4.95;4.57;;;;;;;19.84;47.26;102072.09;6216419;28;20554;-72
2021/05/31 09:34:37;;;;;;;5.05;4.57;;;;;;;19.92;47.30;102074.44;6216792;28;20257;-72
2021/05/31 09:37:45;;;;;;;5.97;4.53;;;;;;;20.09;47.61;102062.53;6217325;28;20250;-72
2021/05/31 09:40:53;;;;;;;9.25;4.68;;;;;;;19.88;46.09;102034.47;6216999;28;20192;-72
2021/05/31 09:44:00;;;;;;;4.65;4.35;;;;;;;20.02;45.81;102071.03;6216257;28;20186;-73
2021/05/31 09:47:05;;;;;;;6.18;4.60;;;;;;;20.08;45.76;102066.41;6216909;28;20193;-73
2021/05/31 09:50:10;;;;;;;8.27;4.38;;;;;;;20.12;45.99;102056.50;6215929;28;20504;-73
2021/05/31 09:53:14;;;;;;;7.32;4.90;;;;;;;20.19;47.30;102071.00;6215927;28;20186;-71
2021/05/31 13:31:32;;;;;;;1.23;1.20;;;;;;;20.02;33.80;102101.50;6409946;27;20273;-73
2021/05/31 13:34:37;;;;;;;1.20;1.20;;;;;;;20.06;33.94;102093.50;6409041;27;20471;-73
2021/05/31 13:37:45;;;;;;;1.10;1.10;;;;;;;20.10;34.49;102097.47;6410561;27;20257;-72
2021/05/31 13:40:50;;;;;;;3.97;1.30;;;;;;;20.14;33.89;102099.47;6409183;27;20292;-72
2021/05/31 13:43:54;;;;;;;1.40;1.40;;;;;;;20.24;33.67;102093.31;6410384;27;20261;-73
2021/05/31 13:46:59;;;;;;;1.20;1.20;;;;;;;20.35;34.21;102084.09;6409011;27;20250;-73
2021/05/31 13:50:04;;;;;;;1.40;1.40;;;;;;;20.33;35.41;102097.34;6409123;27;20235;-73
2021/05/31 13:53:09;;;;;;;1.50;1.50;;;;;;;20.44;34.06;102094.50;6409099;27;20185;-72
2021/05/31 13:56:13;;;;;;;1.50;1.50;;;;;;;20.53;34.31;102083.81;6408422;27;20485;-72
2021/05/31 13:59:17;;;;;;;1.10;1.10;;;;;;;20.47;34.69;102087.59;6409502;27;20209;-74
2021/05/31 14:02:22;;;;;;;3.40;1.40;;;;;;;20.25;34.96;102068.13;6409703;27;20181;-72
2021/05/31 14:05:28;;;;;;;1.40;1.40;;;;;;;20.29;34.83;102079.53;6408192;27;20410;-72
2021/05/31 14:08:32;;;;;;;1.95;1.35;;;;;;;20.23;34.66;102084.19;6408357;27;20241;-72
2021/05/31 14:11:36;;;;;;;1.30;1.30;;;;;;;20.31;34.45;102089.28;6409057;27;20206;-71
2021/05/31 14:14:40;;;;;;;1.48;1.38;;;;;;;20.29;35.36;102074.00;6408718;27;20202;-72
2021/05/31 14:17:46;;;;;;;2.63;1.30;;;;;;;20.26;35.24;102080.06;6409223;27;20188;-71
2021/05/31 14:20:49;;;;;;;1.20;1.20;;;;;;;20.21;34.86;102077.16;6409102;27;20274;-72
2021/05/31 14:23:53;;;;;;;1.58;1.17;;;;;;;20.00;35.81;102104.50;6408940;27;20181;-71
2021/05/31 14:26:58;;;;;;;1.27;1.27;;;;;;;19.86;35.97;102107.81;6409165;27;20196;-71
2021/05/31 14:30:02;;;;;;;;;;;;;;;19.73;36.22;102100.66;6409293;27;20278;-72
2021/05/31 14:33:06;;;;;;;1.38;1.30;;;;;;;19.60;36.79;102114.78;6408649;27;20034;-72
2021/05/31 14:36:11;;;;;;;;;;;;;;;19.68;36.37;102121.88;6408916;27;20179;-72
2021/05/31 14:39:14;;;;;;;;;;;;;;;19.72;37.03;102121.13;6408829;27;19950;-72
2021/05/31 14:42:17;;;;;;;;;;;;;;;19.53;38.05;102119.63;6394864;27;19950;-72
2021/05/31 14:45:21;;;;;;;;;;;;;;;19.49;38.04;102118.44;6391619;27;19952;-72
2021/05/31 14:48:27;;;;;;;;;;;;;;;19.57;38.79;102126.34;6391456;27;19961;-72
2021/05/31 14:51:31;;;;;;;;;;;;;;;19.42;39.72;102126.03;6390486;27;20094;-72
2021/05/31 14:54:35;;;;;;;;;;;;;;;19.23;40.62;102149.41;6391676;27;20020;-72
2021/05/31 14:57:40;;;;;;;;;;;;;;;18.93;40.78;102130.16;6391742;27;19915;-72
2021/05/31 15:00:44;;;;;;;;;;;;;;;18.95;41.08;102143.78;6390437;27;20137;-72
2021/05/31 15:03:50;;;;;;;;;;;;;;;18.74;41.31;102148.81;6391378;27;20010;-72
2021/05/31 15:06:53;;;;;;;;;;;;;;;18.60;42.45;102147.34;6372844;27;19978;-71
2021/05/31 15:09:57;;;;;;;3.20;1.48;;;;;;;18.54;42.56;102131.72;6390621;27;20552;-72
2021/05/31 15:13:00;;;;;;;1.60;1.48;;;;;;;18.62;42.48;102136.91;6390901;27;20181;-72
2021/05/31 15:16:05;;;;;;;2.60;1.58;;;;;;;18.51;42.17;102137.75;6390888;27;20182;-73
2021/05/31 15:19:11;;;;;;;;;;;;;;;18.53;42.26;102135.56;6316288;27;20253;-72
2021/05/31 15:22:15;;;;;;;;;;;;;;;18.63;42.19;102130.28;6315444;28;19916;-72
2021/05/31 15:25:18;;;;;;;;;;;;;;;18.46;42.19;102126.50;6315342;28;19916;-72
2021/05/31 15:28:22;;;;;;;;;;;;;;;18.37;42.10;102133.47;6313848;28;20111;-72
2021/05/31 15:31:25;;;;;;;1.30;1.30;;;;;;;18.34;42.33;102135.84;6315408;28;19984;-72
2021/05/31 15:34:31;;;;;;;1.40;1.40;;;;;;;18.42;42.43;102138.28;6313005;28;20184;-73
2021/05/31 15:37:35;;;;;;;1.20;1.20;;;;;;;18.20;42.78;102135.25;6313641;28;20215;-73
2021/05/31 15:40:39;;;;;;;1.60;1.48;;;;;;;18.33;42.71;102135.03;6313775;28;20218;-73
2021/05/31 15:43:44;;;;;;;1.60;1.60;;;;;;;18.39;42.43;102123.00;6314112;28;20252;-73
2021/05/31 15:46:48;;;;;;;1.50;1.40;;;;;;;18.48;42.33;102121.63;6312802;28;20183;-72
2021/05/31 15:49:52;;;;;;;;;;;;;;;18.51;42.46;102121.16;6314232;28;20250;-72
2021/05/31 15:52:56;;;;;;;;;;;;;;;18.40;42.07;102119.19;6313082;28;19976;-72
2021/05/31 15:55:59;;;;;;;;;;;;;;;18.13;42.56;102124.28;6314034;28;19927;-72
2021/05/31 15:59:03;;;;;;;;;;;;;;;17.96;42.93;102127.94;6313854;28;19962;-71
2021/05/31 16:02:07;;;;;;;;;;;;;;;18.10;42.97;102126.69;6345126;28;19962;-73
2021/05/31 16:05:14;;;;;;;;;;;;;;;18.21;42.54;102123.09;6313837;28;19916;-72
2021/05/31 16:08:17;;;;;;;;;;;;;;;18.35;42.98;102127.34;6312709;28;19939;-72
2021/05/31 16:11:21;;;;;;;;;;;;;;;18.20;42.75;102118.66;6313730;28;19917;-72
2021/05/31 16:14:26;;;;;;;;;;;;;;;18.07;43.90;102121.63;6312277;28;19992;-72
2021/05/31 16:17:29;;;;;;;;;;;;;;;18.11;43.70;102120.06;6312419;28;20246;-72
2021/05/31 16:20:35;;;;;;;;;;;;;;;17.98;43.98;102126.63;6313256;28;19916;-72
2021/05/31 16:23:43;;;;;;;;;;;;;;;17.97;43.67;102113.06;6312570;28;20249;-73
2021/05/31 16:26:51;;;;;;;;;;;;;;;17.79;43.96;102132.44;6313369;28;20006;-72
2021/05/31 16:29:54;;;;;;;;;;;;;;;17.82;43.93;102123.72;6312484;28;19934;-72
2021/05/31 16:32:58;;;;;;;;;;;;;;;17.84;43.83;102125.16;6312141;28;19976;-72
2021/05/31 16:36:03;;;;;;;;;;;;;;;17.79;44.56;102127.78;6313612;28;19952;-73
2021/05/31 16:39:08;;;;;;;;;;;;;;;17.81;44.51;102124.78;6313499;28;20549;-73
2021/05/31 16:42:11;;;;;;;;;;;;;;;17.98;44.17;102120.25;6313673;28;19916;-73
2021/05/31 16:45:16;;;;;;;;;;;;;;;18.18;43.67;102126.31;6312607;28;19979;-73
2021/05/31 16:48:19;;;;;;;;;;;;;;;18.05;44.16;102121.03;6312021;28;20200;-74
2021/05/31 16:51:24;;;;;;;;;;;;;;;18.03;44.18;102123.16;6312847;28;19923;-72
2021/05/31 16:54:27;;;;;;;;;;;;;;;18.07;44.29;102113.34;6312050;28;19920;-72
2021/05/31 16:57:33;;;;;;;;;;;;;;;18.09;44.16;102111.19;6312747;28;19921;-72
2021/05/31 17:00:37;;;;;;;;;;;;;;;17.97;44.15;102124.97;6312457;28;19923;-73
2021/05/31 17:03:40;;;;;;;;;;;;;;;17.79;45.48;102121.41;6311306;28;20111;-73
2021/05/31 17:06:46;;;;;;;;;;;;;;;18.07;44.65;102124.38;6311680;28;19955;-73
2021/05/31 17:09:52;;;;;;;;;;;;;;;18.23;44.87;102120.97;6313748;28;19939;-72
2021/05/31 17:19:41;;;;;;;;;;;;;;;18.36;44.21;102106.91;6311403;28;20267;-75
2021/05/31 17:22:45;;;;;;;;;;;;;;;18.35;43.94;102104.38;6311692;28;19963;-73
2021/05/31 17:25:50;;;;;;;;;;;;;;;18.41;44.00;102107.03;6311814;28;19916;-73
2021/05/31 17:28:55;;;;;;;;;;;;;;;18.35;43.77;102099.72;6310874;28;20230;-73
2021/05/31 17:35:20;;;;;;;;;;;;;;;18.36;44.47;102101.38;6311783;28;19989;-73
2021/05/31 17:43:32;;;;;;;;;;;;;;;18.22;44.61;102115.66;6311256;28;20266;-72
2021/05/31 17:46:35;;;;;;;3.22;1.90;;;;;;;18.11;44.64;102114.53;6310216;28;20581;-73
2021/05/31 17:49:40;;;;;;;2.58;1.90;;;;;;;18.10;44.41;102113.69;6310903;28;20190;-73
2021/05/31 17:52:44;;;;;;;2.17;2.05;;;;;;;18.18;44.26;102118.03;6311305;28;20214;-73
2021/05/31 17:55:48;;;;;;;2.28;1.95;;;;;;;18.22;44.24;102119.25;6311568;28;20215;-73
2021/05/31 17:58:53;;;;;;;2.20;2.10;;;;;;;18.30;44.52;102107.88;6310250;28;20540;-73
2021/05/31 18:01:59;;;;;;;1.85;1.55;;;;;;;18.28;44.30;102115.56;6310096;28;20435;-71
2021/05/31 18:05:06;;;;;;;1.90;1.80;;;;;;;18.18;44.48;102098.69;6310043;28;20222;-72
2021/05/31 18:08:15;;;;;;;1.92;1.92;;;;;;;18.27;44.94;102108.34;6311078;28;20206;-72
2021/05/31 18:11:18;;;;;;;2.28;2.05;;;;;;;18.15;44.95;102110.25;6310903;28;20191;-73
2021/05/31 18:14:24;;;;;;;4.53;1.90;;;;;;;18.17;45.46;102091.50;6309791;28;20487;-73
2021/05/31 18:17:29;;;;;;;2.72;2.60;;;;;;;18.09;45.12;102100.13;6314380;28;20183;-72
2021/05/31 18:20:32;;;;;;;2.80;2.00;;;;;;;18.02;45.11;102110.44;6315279;28;20183;-72
2021/05/31 18:23:36;;;;;;;5.55;2.42;;;;;;;17.90;45.24;102095.75;6314442;28;20477;-72
2021/05/31 18:26:40;;;;;;;3.03;2.90;;;;;;;17.94;46.03;102097.81;6315938;28;20251;-72
2021/05/31 18:29:45;;;;;;;3.47;3.33;;;;;;;17.93;45.35;102101.66;6305558;28;20485;-72
2021/05/31 18:32:49;;;;;;;2.17;2.08;;;;;;;17.89;46.03;102094.06;6292421;28;20188;-74
2021/05/31 18:35:57;;;;;;;4.15;2.90;;;;;;;17.90;45.41;102095.75;6291646;28;20192;-74
2021/05/31 18:39:01;;;;;;;2.17;2.08;;;;;;;17.75;46.07;102109.13;6291042;28;20274;-74
2021/05/31 18:42:07;;;;;;;1.80;1.80;;;;;;;17.71;46.17;102094.13;6291167;28;20247;-72